createdAt,value
2018-07-23T00:02:21.175Z,18.90
2018-07-23T00:04:50.406Z,18.80
2018-07-23T00:07:18.914Z,18.80
2018-07-23T00:09:47.484Z,18.80
2018-07-23T00:12:16.426Z,18.80
2018-07-23T00:14:45.018Z,18.80
2018-07-23T00:17:14.246Z,18.80
2018-07-23T00:19:42.882Z,18.80
2018-07-23T00:24:39.641Z,18.90
2018-07-23T00:27:08.278Z,19.00
2018-07-23T00:29:36.833Z,19.00
2018-07-23T00:32:05.938Z,19.00
2018-07-23T00:34:34.512Z,19.00
2018-07-23T00:37:03.066Z,19.00
2018-07-23T00:39:31.668Z,19.00
2018-07-23T00:42:00.136Z,19.00
2018-07-23T00:44:28.614Z,19.00
2018-07-23T00:46:57.148Z,19.00
2018-07-23T00:49:25.786Z,19.00
2018-07-23T00:51:54.269Z,19.00
2018-07-23T00:54:22.779Z,19.00
2018-07-23T00:56:51.408Z,18.90
2018-07-23T00:59:19.914Z,18.80
2018-07-23T01:01:48.458Z,18.80
2018-07-23T01:04:16.925Z,18.80
2018-07-23T01:06:45.435Z,18.80
2018-07-23T01:09:14.088Z,18.80
2018-07-23T01:11:42.624Z,18.80
2018-07-23T01:16:39.322Z,18.90
2018-07-23T01:19:07.793Z,18.90
2018-07-23T01:21:36.501Z,18.90
2018-07-23T01:24:05.151Z,18.90
2018-07-23T01:26:33.626Z,18.90
2018-07-23T01:29:02.303Z,18.90
2018-07-23T01:31:30.748Z,18.90
2018-07-23T01:33:59.263Z,18.80
2018-07-23T01:36:27.949Z,18.80
2018-07-23T01:38:56.668Z,18.80
2018-07-23T01:41:25.193Z,18.80
2018-07-23T01:43:53.680Z,18.80
2018-07-23T01:48:50.421Z,18.80
2018-07-23T01:51:19.000Z,18.80
2018-07-23T01:53:48.166Z,18.80
2018-07-23T01:56:17.130Z,18.80
2018-07-23T01:58:45.564Z,18.80
2018-07-23T02:01:14.685Z,18.80
2018-07-23T02:03:43.180Z,18.80
2018-07-23T02:06:11.822Z,18.80
2018-07-23T02:08:40.357Z,18.80
2018-07-23T02:11:08.802Z,18.80
2018-07-23T02:13:37.308Z,18.80
2018-07-23T02:16:06.021Z,18.60
2018-07-23T02:18:34.654Z,18.50
2018-07-23T02:21:03.238Z,18.50
2018-07-23T02:23:31.823Z,18.50
2018-07-23T02:26:00.469Z,18.50
2018-07-23T02:36:50.196Z,18.50
2018-07-23T02:39:18.660Z,18.60
2018-07-23T02:41:47.106Z,18.60
2018-07-23T02:44:15.551Z,18.50
2018-07-23T02:46:44.072Z,18.50
2018-07-23T02:49:12.517Z,18.50
2018-07-23T02:51:40.932Z,18.50
2018-07-23T02:54:09.392Z,18.50
2018-07-23T02:56:37.899Z,18.60
2018-07-23T02:59:06.545Z,18.60
2018-07-23T03:01:34.984Z,18.60
2018-07-23T03:04:03.508Z,18.50
2018-07-23T03:06:32.053Z,18.50
2018-07-23T03:09:00.496Z,18.50
2018-07-23T03:11:29.002Z,18.50
2018-07-23T03:16:25.551Z,18.50
2018-07-23T03:18:54.077Z,18.50
2018-07-23T03:21:22.608Z,18.40
2018-07-23T03:23:51.545Z,18.50
2018-07-23T03:26:20.817Z,18.50
2018-07-23T03:28:50.059Z,18.50
2018-07-23T03:31:18.578Z,18.50
2018-07-23T03:33:47.037Z,18.50
2018-07-23T03:36:15.567Z,18.50
2018-07-23T03:38:44.087Z,18.50
2018-07-23T03:41:12.578Z,18.50
2018-07-23T03:43:41.081Z,18.60
2018-07-23T03:46:09.700Z,18.60
2018-07-23T03:48:38.178Z,18.60
2018-07-23T03:51:07.525Z,18.50
2018-07-23T03:53:36.284Z,18.50
2018-07-23T03:56:04.775Z,18.50
2018-07-23T03:58:33.255Z,18.50
2018-07-23T04:01:01.751Z,18.50
2018-07-23T04:03:30.923Z,18.50
2018-07-23T04:05:59.341Z,18.50
2018-07-23T04:08:27.792Z,18.50
2018-07-23T04:10:56.297Z,18.60
2018-07-23T04:13:25.962Z,18.60
2018-07-23T04:15:55.092Z,18.60
2018-07-23T04:18:23.637Z,18.60
2018-07-23T04:20:52.162Z,18.60
2018-07-23T04:23:21.271Z,18.60
2018-07-23T04:25:49.746Z,18.50
2018-07-23T04:28:18.316Z,18.40
2018-07-23T04:30:46.806Z,18.40
2018-07-23T04:33:15.802Z,18.40
2018-07-23T04:35:45.540Z,18.30
2018-07-23T04:38:14.092Z,18.30
2018-07-23T04:40:43.320Z,18.30
2018-07-23T04:43:11.809Z,18.40
2018-07-23T04:45:40.340Z,18.40
2018-07-23T04:48:09.038Z,18.40
2018-07-23T04:50:37.592Z,18.50
2018-07-23T04:53:06.098Z,18.60
2018-07-23T04:55:34.590Z,18.70
2018-07-23T04:58:03.055Z,18.80
2018-07-23T05:00:31.569Z,18.80
2018-07-23T05:03:00.006Z,18.90
2018-07-23T05:05:28.572Z,19.00
2018-07-23T05:07:57.030Z,19.00
2018-07-23T05:10:25.601Z,19.00
2018-07-23T05:12:54.641Z,19.10
2018-07-23T05:17:51.337Z,19.20
2018-07-23T05:20:20.358Z,19.20
2018-07-23T05:22:49.442Z,19.20
2018-07-23T05:25:18.127Z,19.30
2018-07-23T05:27:46.684Z,19.30
2018-07-23T05:30:15.202Z,19.30
2018-07-23T05:32:43.834Z,19.30
2018-07-23T05:35:12.378Z,19.20
2018-07-23T05:37:40.905Z,19.00
2018-07-23T05:40:09.542Z,19.00
2018-07-23T05:42:38.475Z,19.00
2018-07-23T05:45:07.573Z,19.10
2018-07-23T05:47:36.050Z,19.30
2018-07-23T05:50:05.080Z,19.50
2018-07-23T05:52:33.562Z,19.50
2018-07-23T05:55:02.988Z,19.60
2018-07-23T05:57:38.022Z,19.60
2018-07-23T06:00:06.665Z,19.60
2018-07-23T06:02:35.128Z,19.50
2018-07-23T06:05:03.677Z,19.40
2018-07-23T06:07:32.081Z,19.30
2018-07-23T06:10:00.608Z,19.20
2018-07-23T06:12:29.268Z,19.20
2018-07-23T06:14:57.688Z,19.30
2018-07-23T06:17:26.243Z,19.40
2018-07-23T06:19:54.811Z,19.60
2018-07-23T06:22:23.293Z,19.80
2018-07-23T06:24:51.714Z,19.70
2018-07-23T06:27:20.207Z,19.60
2018-07-23T06:29:48.783Z,19.70
2018-07-23T06:32:17.406Z,19.90
2018-07-23T06:34:45.852Z,20.10
2018-07-23T06:37:14.478Z,20.20
2018-07-23T06:39:43.689Z,20.40
2018-07-23T06:42:12.224Z,20.50
2018-07-23T06:44:40.677Z,20.50
2018-07-23T06:47:09.894Z,20.60
2018-07-23T06:49:39.056Z,20.70
2018-07-23T06:52:07.907Z,20.80
2018-07-23T06:54:36.405Z,20.90
2018-07-23T06:57:05.034Z,20.90
2018-07-23T06:59:33.835Z,21.10
2018-07-23T07:02:03.194Z,21.20
2018-07-23T07:04:31.670Z,21.10
2018-07-23T07:07:00.254Z,21.20
2018-07-23T07:09:29.378Z,21.30
2018-07-23T07:11:58.078Z,21.40
2018-07-23T07:16:54.862Z,21.30
2018-07-23T07:19:23.397Z,21.40
2018-07-23T07:21:52.004Z,21.50
2018-07-23T07:24:20.541Z,21.40
2018-07-23T07:26:49.071Z,21.20
2018-07-23T07:29:17.520Z,21.20
2018-07-23T07:31:45.991Z,21.40
2018-07-23T07:34:14.662Z,21.40
2018-07-23T07:36:43.149Z,21.30
2018-07-23T07:39:12.896Z,21.50
2018-07-23T07:41:41.784Z,21.70
2018-07-23T07:44:11.201Z,22.00
2018-07-23T07:46:40.734Z,22.10
2018-07-23T07:49:09.426Z,22.10
2018-07-23T07:51:37.903Z,22.30
2018-07-23T07:54:06.460Z,22.50
2018-07-23T07:56:35.021Z,22.70
2018-07-23T07:59:03.553Z,22.90
2018-07-23T08:01:32.090Z,22.90
2018-07-23T08:04:00.785Z,22.60
2018-07-23T08:06:29.334Z,22.80
2018-07-23T08:08:57.886Z,23.20
2018-07-23T08:11:27.049Z,23.80
2018-07-23T08:13:55.560Z,24.30
2018-07-23T08:16:24.234Z,24.40
2018-07-23T08:18:52.821Z,24.40
2018-07-23T08:21:21.299Z,24.50
2018-07-23T08:23:49.909Z,24.60
2018-07-23T08:26:19.168Z,24.40
2018-07-23T08:28:47.833Z,24.00
2018-07-23T08:31:16.688Z,23.90
2018-07-23T08:33:45.292Z,23.90
2018-07-23T08:36:13.869Z,23.40
2018-07-23T08:38:43.148Z,23.30
2018-07-23T08:41:11.801Z,23.40
2018-07-23T08:43:40.675Z,23.40
2018-07-23T08:46:09.277Z,24.00
2018-07-23T08:48:37.872Z,24.30
2018-07-23T08:51:06.602Z,24.20
2018-07-23T08:53:35.567Z,25.00
2018-07-23T08:56:04.112Z,25.20
2018-07-23T08:58:32.624Z,25.40
2018-07-23T09:01:01.179Z,25.00
2018-07-23T09:03:29.714Z,25.10
2018-07-23T09:05:58.258Z,25.20
2018-07-23T09:08:27.176Z,25.20
2018-07-23T09:13:23.964Z,25.20
2018-07-23T09:15:52.504Z,24.70
2018-07-23T09:18:21.621Z,25.20
2018-07-23T09:20:50.118Z,25.10
2018-07-23T09:23:18.653Z,25.40
2018-07-23T09:25:48.122Z,25.60
2018-07-23T09:28:17.762Z,26.00
2018-07-23T09:30:50.325Z,26.90
2018-07-23T09:33:19.421Z,27.40
2018-07-23T09:35:48.300Z,27.70
2018-07-23T09:38:16.803Z,27.80
2018-07-23T09:40:45.901Z,28.00
2018-07-23T09:43:14.573Z,27.80
2018-07-23T09:45:43.633Z,27.40
2018-07-23T09:48:12.347Z,27.20
2018-07-23T09:50:41.460Z,26.90
2018-07-23T09:53:09.942Z,27.10
2018-07-23T09:55:38.538Z,26.90
2018-07-23T09:58:07.152Z,27.10
2018-07-23T10:00:41.059Z,27.80
2018-07-23T10:03:09.657Z,27.50
2018-07-23T10:05:38.267Z,28.00
2018-07-23T10:08:08.805Z,28.10
2018-07-23T10:10:37.337Z,28.30
2018-07-23T10:13:05.881Z,27.70
2018-07-23T10:15:34.432Z,28.30
2018-07-23T10:18:03.315Z,28.60
2018-07-23T10:20:32.078Z,29.20
2018-07-23T10:23:00.502Z,29.60
2018-07-23T10:25:29.091Z,29.50
2018-07-23T10:27:57.722Z,29.30
2018-07-23T10:30:26.367Z,29.50
2018-07-23T10:32:54.990Z,29.60
2018-07-23T10:35:23.682Z,29.80
2018-07-23T10:37:52.241Z,30.20
2018-07-23T10:40:21.199Z,30.20
2018-07-23T10:42:49.767Z,29.80
2018-07-23T10:45:19.055Z,29.60
2018-07-23T10:47:47.641Z,29.70
2018-07-23T10:50:16.434Z,29.90
2018-07-23T10:52:44.948Z,30.00
2018-07-23T10:55:13.447Z,30.10
2018-07-23T10:57:42.118Z,30.20
2018-07-23T11:00:11.515Z,30.40
2018-07-23T11:02:40.196Z,30.50
2018-07-23T11:05:09.516Z,30.50
2018-07-23T11:07:38.269Z,30.50
2018-07-23T11:10:07.658Z,30.50
2018-07-23T11:12:36.925Z,30.50
2018-07-23T11:15:07.639Z,30.40
2018-07-23T11:17:36.792Z,30.60
2018-07-23T11:20:07.067Z,30.60
2018-07-23T11:22:36.417Z,29.80
2018-07-23T11:25:38.414Z,28.50
2018-07-23T11:27:34.125Z,28.10
2018-07-23T11:30:02.986Z,28.30
2018-07-23T11:32:31.725Z,28.70
2018-07-23T11:35:00.403Z,28.30
2018-07-23T11:37:29.022Z,28.20
2018-07-23T11:39:57.510Z,28.80
2018-07-23T11:42:26.066Z,29.00
2018-07-23T11:44:55.493Z,29.40
2018-07-23T11:47:24.549Z,29.70
2018-07-23T11:49:53.158Z,28.70
2018-07-23T11:52:21.623Z,28.00
2018-07-23T11:54:50.233Z,28.40
2018-07-23T11:57:19.490Z,28.10
2018-07-23T11:59:47.999Z,28.70
2018-07-23T12:04:45.003Z,28.30
2018-07-23T12:07:13.529Z,28.50
2018-07-23T12:09:42.358Z,29.10
2018-07-23T12:12:11.227Z,29.70
2018-07-23T12:14:39.837Z,30.20
2018-07-23T12:17:08.534Z,30.50
2018-07-23T12:19:37.166Z,30.50
2018-07-23T12:24:34.005Z,30.00
2018-07-23T12:27:02.667Z,30.40
2018-07-23T12:29:31.649Z,30.60
2018-07-23T12:32:00.210Z,30.60
2018-07-23T12:34:28.640Z,30.50
2018-07-23T12:36:57.219Z,30.50
2018-07-23T12:39:26.054Z,30.10
2018-07-23T12:41:54.519Z,29.70
2018-07-23T12:44:23.120Z,29.00
2018-07-23T12:49:20.603Z,29.50
2018-07-23T12:51:49.989Z,29.50
2018-07-23T12:54:18.494Z,29.30
2018-07-23T12:56:46.983Z,29.80
2018-07-23T12:59:15.496Z,29.70
2018-07-23T13:01:44.088Z,29.90
2018-07-23T13:04:12.981Z,30.20
2018-07-23T13:06:41.782Z,29.90
2018-07-23T13:09:12.275Z,30.10
2018-07-23T13:11:41.116Z,29.90
2018-07-23T13:14:09.845Z,29.90
2018-07-23T13:16:38.648Z,29.80
2018-07-23T13:19:07.291Z,30.10
2018-07-23T13:21:36.036Z,30.50
2018-07-23T13:24:04.666Z,29.80
2018-07-23T13:26:33.242Z,29.90
2018-07-23T13:31:30.035Z,29.40
2018-07-23T13:33:58.697Z,29.70
2018-07-23T13:36:27.632Z,29.90
2018-07-23T13:38:57.231Z,30.00
2018-07-23T13:41:25.940Z,30.20
2018-07-23T13:43:54.629Z,30.00
2018-07-23T13:46:23.144Z,29.80
2018-07-23T13:48:51.783Z,29.60
2018-07-23T13:51:20.333Z,30.00
2018-07-23T13:53:49.675Z,30.20
2018-07-23T13:56:18.380Z,29.80
2018-07-23T13:58:47.086Z,28.90
2018-07-23T14:03:43.718Z,28.80
2018-07-23T14:06:12.782Z,28.50
2018-07-23T14:08:41.359Z,28.30
2018-07-23T14:11:10.015Z,28.30
2018-07-23T14:13:38.520Z,28.40
2018-07-23T14:16:07.342Z,28.50
2018-07-23T14:18:35.975Z,28.40
2018-07-23T14:21:04.541Z,28.30
2018-07-23T14:23:33.271Z,28.10
2018-07-23T14:26:02.164Z,28.70
2018-07-23T14:28:30.889Z,28.50
2018-07-23T14:30:59.341Z,28.40
2018-07-23T14:33:28.055Z,28.50
2018-07-23T14:35:56.694Z,28.30
2018-07-23T14:38:25.908Z,28.10
2018-07-23T14:40:55.991Z,28.20
2018-07-23T14:43:24.472Z,28.20
2018-07-23T14:45:53.207Z,28.40
2018-07-23T14:48:21.761Z,28.30
2018-07-23T14:50:51.111Z,28.20
2018-07-23T14:55:48.044Z,28.50
2018-07-23T14:58:16.619Z,28.80
2018-07-23T15:00:45.101Z,28.70
2018-07-23T15:03:13.560Z,28.90
2018-07-23T15:05:42.222Z,28.90
2018-07-23T15:10:38.897Z,28.50
2018-07-23T15:13:07.360Z,28.50
2018-07-23T15:15:36.060Z,28.60
2018-07-23T15:18:05.017Z,28.50
2018-07-23T15:20:33.491Z,28.40
2018-07-23T15:23:02.158Z,28.50
2018-07-23T15:25:31.130Z,28.70
2018-07-23T15:27:59.717Z,28.60
2018-07-23T15:30:28.744Z,28.80
2018-07-23T15:33:03.875Z,28.70
2018-07-23T15:35:32.337Z,28.50
2018-07-23T15:38:00.884Z,28.40
2018-07-23T15:40:29.409Z,28.40
2018-07-23T15:42:59.886Z,28.40
2018-07-23T15:45:28.783Z,28.60
2018-07-23T15:47:57.254Z,28.70
2018-07-23T15:50:26.728Z,28.60
2018-07-23T15:52:55.264Z,28.40
2018-07-23T15:55:23.875Z,28.40
2018-07-23T15:57:52.624Z,28.60
2018-07-23T16:00:21.267Z,28.40
2018-07-23T16:02:49.718Z,28.40
2018-07-23T16:05:18.181Z,28.20
2018-07-23T16:07:46.645Z,27.90
2018-07-23T16:10:15.284Z,27.80
2018-07-23T16:12:43.708Z,27.80
2018-07-23T16:15:12.252Z,27.90
2018-07-23T16:17:40.879Z,27.90
2018-07-23T16:20:09.405Z,27.80
2018-07-23T16:25:07.964Z,27.70
2018-07-23T16:27:36.492Z,27.70
2018-07-23T16:30:06.167Z,27.70
2018-07-23T16:32:34.744Z,27.70
2018-07-23T16:35:09.768Z,27.70
2018-07-23T16:37:38.588Z,27.70
2018-07-23T16:40:08.081Z,27.80
2018-07-23T16:42:37.115Z,27.80
2018-07-23T16:45:05.705Z,27.70
2018-07-23T16:47:34.238Z,27.60
2018-07-23T16:50:02.799Z,27.70
2018-07-23T16:52:31.743Z,27.60
2018-07-23T16:55:00.336Z,27.60
2018-07-23T16:57:28.882Z,27.50
2018-07-23T17:00:01.035Z,27.50
2018-07-23T17:02:29.769Z,27.50
2018-07-23T17:04:58.464Z,27.40
2018-07-23T17:07:26.976Z,27.30
2018-07-23T17:09:56.316Z,27.20
2018-07-23T17:12:24.808Z,27.20
2018-07-23T17:14:53.312Z,27.20
2018-07-23T17:17:21.985Z,27.20
2018-07-23T17:19:51.168Z,27.10
2018-07-23T17:22:19.812Z,27.00
2018-07-23T17:24:48.874Z,27.00
2018-07-23T17:27:23.983Z,26.90
2018-07-23T17:29:52.610Z,26.80
2018-07-23T17:32:21.203Z,26.70
2018-07-23T17:34:50.492Z,26.70
2018-07-23T17:37:19.152Z,26.60
2018-07-23T17:39:47.753Z,26.70
2018-07-23T17:42:16.720Z,26.60
2018-07-23T17:44:45.825Z,26.50
2018-07-23T17:47:14.341Z,26.50
2018-07-23T17:49:42.934Z,26.40
2018-07-23T17:52:11.420Z,26.40
2018-07-23T17:54:40.024Z,26.40
2018-07-23T17:57:08.565Z,26.30
2018-07-23T17:59:37.075Z,26.30
2018-07-23T18:02:05.924Z,26.30
2018-07-23T18:04:35.236Z,26.30
2018-07-23T18:07:03.827Z,26.30
2018-07-23T18:09:32.381Z,26.20
2018-07-23T18:12:00.906Z,26.20
2018-07-23T18:14:29.458Z,26.20
2018-07-23T18:16:58.041Z,26.00
2018-07-23T18:19:27.134Z,25.90
2018-07-23T18:21:55.677Z,25.90
2018-07-23T18:24:24.193Z,25.80
2018-07-23T18:26:52.699Z,25.80
2018-07-23T18:29:21.219Z,25.70
2018-07-23T18:31:50.417Z,25.80
2018-07-23T18:34:19.501Z,25.70
2018-07-23T18:36:47.982Z,25.60
2018-07-23T18:39:16.476Z,25.50
2018-07-23T18:41:45.127Z,25.50
2018-07-23T18:46:42.605Z,25.40
2018-07-23T18:49:23.648Z,25.20
2018-07-23T18:51:53.200Z,25.20
2018-07-23T18:54:24.151Z,25.20
2018-07-23T18:56:54.329Z,25.10
2018-07-23T18:59:22.884Z,25.10
2018-07-23T19:01:52.607Z,24.90
2018-07-23T19:04:21.202Z,24.80
2018-07-23T19:06:50.106Z,24.70
2018-07-23T19:11:49.378Z,24.70
2018-07-23T19:14:18.888Z,24.70
2018-07-23T19:16:47.979Z,24.60
2018-07-23T19:19:16.543Z,24.50
2018-07-23T19:21:45.063Z,24.40
2018-07-23T19:24:13.585Z,24.20
2018-07-23T19:26:42.214Z,24.10
2018-07-23T19:29:10.764Z,24.10
2018-07-23T19:31:39.321Z,24.10
2018-07-23T19:34:07.932Z,24.00
2018-07-23T19:36:36.858Z,23.90
2018-07-23T19:39:10.039Z,23.80
2018-07-23T19:41:39.100Z,23.80
2018-07-23T19:44:08.668Z,23.80
2018-07-23T19:46:37.218Z,23.70
2018-07-23T19:49:05.836Z,23.70
2018-07-23T19:51:34.646Z,23.60
2018-07-23T19:54:03.310Z,23.50
2018-07-23T19:56:32.654Z,23.40
2018-07-23T19:59:01.598Z,23.30
2018-07-23T20:01:30.168Z,23.20
2018-07-23T20:03:58.759Z,23.20
2018-07-23T20:06:28.146Z,23.10
2018-07-23T20:08:57.669Z,22.90
2018-07-23T20:11:26.942Z,22.90
2018-07-23T20:14:02.107Z,22.90
2018-07-23T20:16:30.602Z,23.00
2018-07-23T20:18:59.382Z,23.00
2018-07-23T20:21:27.952Z,23.00
2018-07-23T20:24:00.998Z,23.10
2018-07-23T20:26:29.520Z,23.00
2018-07-23T20:28:58.158Z,23.00
2018-07-23T20:31:26.606Z,23.00
2018-07-23T20:33:55.196Z,23.00
2018-07-23T20:36:55.204Z,22.90
2018-07-23T20:39:24.174Z,22.90
2018-07-23T20:41:53.633Z,22.80
2018-07-23T20:44:22.224Z,22.70
2018-07-23T20:46:50.737Z,22.70
2018-07-23T20:49:19.220Z,22.70
2018-07-23T20:51:47.713Z,22.60
2018-07-23T20:54:16.205Z,22.60
2018-07-23T20:56:44.757Z,22.60
2018-07-23T20:59:13.280Z,22.60
2018-07-23T21:01:41.894Z,22.60
2018-07-23T21:04:10.768Z,22.50
2018-07-23T21:06:39.298Z,22.50
2018-07-23T21:09:08.132Z,22.50
2018-07-23T21:11:37.493Z,22.50
2018-07-23T21:14:06.707Z,22.50
2018-07-23T21:16:35.141Z,22.40
2018-07-23T21:19:03.779Z,22.30
2018-07-23T21:21:40.254Z,22.30
2018-07-23T21:24:08.753Z,22.20
2018-07-23T21:26:38.240Z,22.20
2018-07-23T21:29:08.177Z,22.20
2018-07-23T21:31:36.998Z,22.20
2018-07-23T21:34:05.880Z,22.10
2018-07-23T21:36:34.469Z,22.10
2018-07-23T21:39:03.348Z,22.10
2018-07-23T21:43:59.996Z,21.90
2018-07-23T21:46:28.637Z,21.80
2018-07-23T21:48:57.166Z,21.80
2018-07-23T21:51:25.969Z,21.70
2018-07-23T21:53:55.909Z,21.70
2018-07-23T21:56:24.460Z,21.60
2018-07-23T21:58:52.951Z,21.60
2018-07-23T22:01:22.252Z,21.60
2018-07-23T22:03:50.882Z,21.60
2018-07-23T22:06:23.418Z,21.60
2018-07-23T22:08:53.694Z,21.50
2018-07-23T22:11:22.470Z,21.50
2018-07-23T22:13:51.040Z,21.30
2018-07-23T22:16:20.295Z,21.30
2018-07-23T22:18:48.992Z,21.20
2018-07-23T22:21:17.536Z,21.10
2018-07-23T22:23:46.819Z,21.10
2018-07-23T22:26:15.461Z,21.10
2018-07-23T22:28:44.173Z,21.10
2018-07-23T22:31:12.892Z,21.00
2018-07-23T22:33:42.543Z,21.00
2018-07-23T22:36:11.090Z,20.90
2018-07-23T22:38:39.554Z,20.80
2018-07-23T22:41:08.172Z,20.80
2018-07-23T22:43:37.518Z,20.70
2018-07-23T22:46:06.030Z,20.70
2018-07-23T22:48:34.490Z,20.70
2018-07-23T22:51:02.974Z,20.60
2018-07-23T22:53:31.410Z,20.50
2018-07-23T22:56:00.030Z,20.30
2018-07-23T22:58:28.739Z,20.20
2018-07-23T23:01:04.265Z,20.10
2018-07-23T23:03:33.019Z,20.20
2018-07-23T23:06:01.719Z,20.30
2018-07-23T23:08:30.315Z,20.20
2018-07-23T23:10:59.010Z,20.20
2018-07-23T23:13:27.644Z,20.20
2018-07-23T23:18:24.542Z,20.20
2018-07-23T23:20:53.068Z,20.20
2018-07-23T23:23:21.802Z,20.20
2018-07-23T23:25:50.464Z,20.20
2018-07-23T23:28:19.462Z,20.10
2018-07-23T23:30:47.984Z,19.90
2018-07-23T23:33:16.861Z,19.90
2018-07-23T23:35:45.392Z,19.80
2018-07-23T23:38:15.073Z,19.80
2018-07-23T23:40:43.529Z,19.90
2018-07-23T23:43:12.230Z,19.90
2018-07-23T23:45:41.131Z,19.80
2018-07-23T23:48:09.601Z,19.70
2018-07-23T23:50:38.171Z,19.60
2018-07-23T23:53:06.884Z,19.50
2018-07-23T23:55:35.376Z,19.50
2018-07-23T23:58:04.279Z,19.60
